Time;durP1;ratioP1;P1;durP2;ratioP2;P2;SDS_P1;SDS_P2;PMS_P1;PMS_P2;Temp;Humidity;BMP_temperature;BMP_pressure;BME280_temperature;BME280_humidity;BME280_pressure;Samples;Min_cycle;Max_cycle;Signal;HPM_P1;HPM_P2
2022/06/26 00:00:50;;;;;;;1.93;1.70;;;25.40;56.40;;;;;;5074629;28;20595;-48
2022/06/26 00:03:30;;;;;;;2.20;1.60;;;25.40;56.40;;;;;;5074896;28;20600;-50
2022/06/26 00:06:11;;;;;;;1.73;1.60;;;25.40;56.40;;;;;;5102034;27;20537;-50
2022/06/26 00:08:52;;;;;;;1.83;1.60;;;25.40;56.50;;;;;;5045390;28;20529;-48
2022/06/26 00:11:33;;;;;;;3.13;1.43;;;25.40;56.60;;;;;;5069345;27;21093;-48
2022/06/26 00:14:22;;;;;;;1.70;1.60;;;25.40;56.60;;;;;;5066994;27;20556;-50
2022/06/26 00:17:01;;;;;;;1.73;1.63;;;25.40;56.50;;;;;;5087458;28;20911;-49
2022/06/26 00:19:41;;;;;;;1.37;1.27;;;25.40;56.50;;;;;;5087370;28;20527;-49
2022/06/26 00:22:21;;;;;;;1.73;1.43;;;25.40;56.50;;;;;;5122360;27;21051;-47
2022/06/26 00:25:01;;;;;;;1.67;1.57;;;25.40;56.50;;;;;;5077701;27;20544;-47
2022/06/26 00:27:42;;;;;;;1.40;1.30;;;25.40;56.50;;;;;;5114441;27;20545;-49
2022/06/26 00:30:22;;;;;;;1.50;1.40;;;25.40;56.50;;;;;;5085471;27;20590;-48
2022/06/26 00:33:04;;;;;;;1.07;0.97;;;25.40;56.50;;;;;;5104641;27;21113;-49
2022/06/26 00:35:45;;;;;;;2.30;1.40;;;25.40;56.50;;;;;;5061119;28;20540;-47
2022/06/26 00:38:25;;;;;;;1.83;1.60;;;25.40;56.50;;;;;;5074828;27;20538;-48
2022/06/26 00:41:05;;;;;;;2.20;1.20;;;25.40;56.50;;;;;;5128433;27;20521;-48
2022/06/26 00:43:46;;;;;;;1.60;1.50;;;25.40;56.50;;;;;;5062965;27;20607;-48
2022/06/26 00:46:26;;;;;;;2.20;1.73;;;25.30;56.40;;;;;;5086016;28;20539;-49
2022/06/26 00:49:07;;;;;;;1.47;1.37;;;25.30;56.40;;;;;;5070536;27;20541;-47
2022/06/26 00:51:51;;;;;;;1.80;1.70;;;25.30;56.30;;;;;;5073562;27;21123;-48
2022/06/26 00:54:32;;;;;;;2.30;1.53;;;25.40;56.40;;;;;;5067797;27;20540;-68
2022/06/26 00:57:13;;;;;;;1.73;1.63;;;25.30;56.40;;;;;;5087866;28;20923;-47
2022/06/26 00:59:53;;;;;;;1.33;1.23;;;25.30;56.40;;;;;;5069780;28;20610;-48
2022/06/26 01:02:33;;;;;;;2.00;1.30;;;25.30;56.40;;;;;;5082489;27;20531;-46
2022/06/26 01:05:14;;;;;;;2.30;1.43;;;25.30;56.40;;;;;;5125480;27;20609;-51
2022/06/26 01:07:54;;;;;;;1.77;1.67;;;25.30;56.50;;;;;;5068384;28;20935;-47
2022/06/26 01:10:36;;;;;;;3.87;1.70;;;25.30;56.40;;;;;;5089834;27;20543;-47
2022/06/26 01:13:17;;;;;;;1.30;1.20;;;25.30;56.40;;;;;;5070777;28;20584;-49
2022/06/26 01:15:58;;;;;;;2.93;1.37;;;25.30;56.40;;;;;;5101153;27;20533;-48
2022/06/26 01:18:40;;;;;;;1.60;1.30;;;25.30;56.40;;;;;;5068880;27;21131;-47
2022/06/26 01:21:22;;;;;;;1.50;1.10;;;25.30;56.50;;;;;;5085869;28;20535;-46
2022/06/26 01:24:05;;;;;;;1.40;1.30;;;25.30;56.40;;;;;;5069714;27;20586;-48
2022/06/26 01:26:45;;;;;;;1.17;1.07;;;25.30;56.50;;;;;;5087042;28;20520;-49
2022/06/26 01:29:27;;;;;;;1.40;1.30;;;25.30;56.40;;;;;;5063754;27;20612;-48
2022/06/26 01:32:09;;;;;;;1.57;1.47;;;25.30;56.60;;;;;;5128417;27;20578;-47
2022/06/26 01:34:50;;;;;;;1.00;0.90;;;25.30;56.60;;;;;;5095299;27;20953;-48
2022/06/26 01:37:31;;;;;;;2.87;1.43;;;25.30;56.40;;;;;;5058021;27;20944;-48
2022/06/26 01:40:13;;;;;;;1.70;1.60;;;25.30;56.50;;;;;;5087156;28;20586;-47
2022/06/26 01:42:53;;;;;;;2.20;1.77;;;25.30;56.50;;;;;;5074198;27;20544;-50
2022/06/26 01:45:41;;;;;;;2.43;1.60;;;25.30;56.50;;;;;;5060887;27;20599;-48
2022/06/26 01:48:24;;;;;;;1.37;1.27;;;25.30;56.50;;;;;;5097117;27;20603;-47
2022/06/26 01:51:05;;;;;;;2.20;1.60;;;25.30;56.50;;;;;;5092753;27;20528;-48
2022/06/26 01:53:47;;;;;;;3.07;1.70;;;25.20;56.50;;;;;;5064697;27;20569;-48
2022/06/26 01:56:29;;;;;;;1.50;1.40;;;25.20;56.50;;;;;;5128391;27;20567;-52
2022/06/26 01:59:10;;;;;;;1.67;1.37;;;25.20;56.40;;;;;;5069519;28;20541;-48
2022/06/26 02:01:56;;;;;;;1.70;1.50;;;25.20;56.50;;;;;;5087491;28;21092;-50
2022/06/26 02:04:39;;;;;;;1.47;1.23;;;25.20;56.50;;;;;;5127984;27;20953;-48
2022/06/26 02:07:19;;;;;;;1.90;1.70;;;25.30;56.50;;;;;;5080903;28;20589;-48
2022/06/26 02:16:04;;;;;;;1.33;1.23;;;25.20;56.50;;;;;;5116352;27;20548;-48
2022/06/26 02:18:46;;;;;;;3.53;1.50;;;25.20;56.50;;;;;;5098598;27;20589;-48
2022/06/26 02:21:28;;;;;;;1.40;1.07;;;25.20;56.50;;;;;;5106319;27;21125;-48
2022/06/26 02:24:09;;;;;;;1.53;1.43;;;25.20;56.60;;;;;;5067906;28;20591;-48
2022/06/26 02:26:51;;;;;;;1.67;1.57;;;25.20;56.50;;;;;;5068449;27;20945;-47
2022/06/26 02:29:32;;;;;;;1.33;1.23;;;25.20;56.50;;;;;;5064941;27;20541;-49
2022/06/26 02:32:12;;;;;;;2.07;1.60;;;25.20;56.60;;;;;;5086745;28;20578;-47
2022/06/26 02:34:51;;;;;;;1.50;1.40;;;25.20;56.50;;;;;;5076198;28;20588;-49
2022/06/26 02:37:31;;;;;;;1.80;1.40;;;25.20;56.40;;;;;;5081366;27;20586;-49
2022/06/26 02:40:13;;;;;;;1.23;1.13;;;25.20;56.40;;;;;;5113545;27;20576;-47
2022/06/26 02:42:54;;;;;;;1.43;1.33;;;25.20;56.50;;;;;;5082288;27;20533;-48
2022/06/26 02:45:36;;;;;;;1.43;1.33;;;25.10;56.40;;;;;;5071674;28;20599;-48
2022/06/26 02:48:17;;;;;;;1.40;0.90;;;25.10;56.40;;;;;;5099055;27;20960;-48
2022/06/26 02:50:57;;;;;;;1.20;1.10;;;25.10;56.30;;;;;;5125986;27;20578;-47
2022/06/26 02:53:38;;;;;;;1.30;1.20;;;25.10;56.30;;;;;;5066227;27;21056;-48
2022/06/26 02:56:19;;;;;;;1.33;1.10;;;25.10;56.30;;;;;;5125130;27;20586;-49
2022/06/26 02:58:59;;;;;;;1.47;1.37;;;25.10;56.30;;;;;;5081229;27;20598;-46
2022/06/26 03:01:41;;;;;;;3.83;1.70;;;25.10;56.30;;;;;;5084202;28;20597;-46
2022/06/26 03:04:42;;;;;;;2.30;1.33;;;25.10;56.40;;;;;;5122726;27;20599;-48
2022/06/26 03:07:24;;;;;;;3.10;1.40;;;25.10;56.40;;;;;;5083902;28;20527;-47
2022/06/26 03:10:07;;;;;;;1.03;0.97;;;25.10;56.40;;;;;;5128460;27;20517;-50
2022/06/26 03:12:49;;;;;;;1.20;1.10;;;25.10;56.40;;;;;;5103637;27;20591;-49
2022/06/26 03:15:30;;;;;;;1.70;1.40;;;25.10;56.40;;;;;;5078015;27;21063;-48
2022/06/26 03:18:13;;;;;;;1.97;1.50;;;25.10;56.40;;;;;;5060791;28;20597;-47
2022/06/26 03:20:53;;;;;;;1.47;1.10;;;25.10;56.40;;;;;;5068742;27;20609;-47
2022/06/26 03:26:34;;;;;;;1.27;1.17;;;25.10;56.30;;;;;;5128787;27;20513;-50
2022/06/26 03:29:17;;;;;;;1.03;1.00;;;25.00;56.40;;;;;;5065611;27;20894;-48
2022/06/26 03:31:58;;;;;;;1.10;0.90;;;25.00;56.30;;;;;;5128766;27;20520;-46
2022/06/26 03:34:39;;;;;;;1.33;1.23;;;25.00;56.30;;;;;;5092486;27;20577;-48
2022/06/26 03:37:19;;;;;;;1.50;1.40;;;25.00;56.30;;;;;;5082753;28;20997;-48
2022/06/26 03:40:00;;;;;;;2.00;1.20;;;25.00;56.20;;;;;;5087673;27;20580;-46
2022/06/26 03:42:42;;;;;;;1.90;1.27;;;25.00;56.20;;;;;;5078240;28;21227;-47
2022/06/26 03:45:23;;;;;;;1.20;1.10;;;25.00;56.30;;;;;;5083007;27;20539;-47
2022/06/26 03:48:03;;;;;;;1.60;0.87;;;25.00;56.40;;;;;;5105423;27;20590;-49
2022/06/26 03:50:45;;;;;;;1.13;1.03;;;24.90;56.30;;;;;;5105971;27;20537;-49
2022/06/26 03:53:26;;;;;;;1.10;1.00;;;25.00;56.40;;;;;;5068851;27;20596;-48
2022/06/26 03:56:07;;;;;;;1.20;1.10;;;24.90;56.40;;;;;;5073495;27;20594;-48
2022/06/26 03:58:49;;;;;;;2.90;1.13;;;24.90;56.40;;;;;;5059371;27;20973;-48
2022/06/26 04:01:32;;;;;;;1.17;1.07;;;24.90;56.40;;;;;;5088955;27;20528;-48
2022/06/26 04:04:13;;;;;;;1.37;1.27;;;24.90;56.40;;;;;;5059008;28;21076;-47
2022/06/26 04:06:55;;;;;;;1.00;1.00;;;24.90;56.40;;;;;;5114136;27;20580;-50
2022/06/26 04:09:42;;;;;;;1.20;1.10;;;24.90;56.40;;;;;;5087158;27;20770;-48
2022/06/26 04:12:24;;;;;;;3.47;1.10;;;24.90;56.40;;;;;;5085575;27;20596;-46
2022/06/26 04:15:07;;;;;;;1.43;1.33;;;24.90;56.30;;;;;;5071578;27;20546;-50
2022/06/26 04:17:50;;;;;;;1.13;1.03;;;24.90;56.30;;;;;;5070006;27;21037;-48
2022/06/26 04:20:30;;;;;;;1.23;1.13;;;24.90;56.40;;;;;;5085525;28;20523;-48
2022/06/26 04:23:14;;;;;;;1.40;1.30;;;24.90;56.30;;;;;;5078725;27;20540;-48
2022/06/26 04:25:55;;;;;;;1.63;1.37;;;24.90;56.30;;;;;;5073814;28;20594;-48
2022/06/26 04:28:37;;;;;;;1.27;1.13;;;24.90;56.30;;;;;;5106094;27;20586;-48
2022/06/26 04:31:20;;;;;;;1.10;1.00;;;24.90;56.30;;;;;;5087656;28;20581;-49
2022/06/26 04:34:05;;;;;;;1.30;1.20;;;24.90;56.20;;;;;;5069018;27;20537;-48
2022/06/26 04:36:44;;;;;;;1.33;1.00;;;24.90;56.40;;;;;;5082665;27;20585;-47
2022/06/26 04:39:31;;;;;;;1.30;1.20;;;24.80;56.30;;;;;;5069035;27;20597;-47
2022/06/26 04:42:15;;;;;;;1.20;1.10;;;24.90;56.40;;;;;;5126549;27;20520;-48
2022/06/26 04:44:55;;;;;;;1.10;0.97;;;24.90;56.40;;;;;;5103252;27;20542;-50
2022/06/26 04:47:37;;;;;;;1.10;0.93;;;24.80;56.30;;;;;;5095886;27;20604;-48
2022/06/26 04:50:29;;;;;;;1.07;1.03;;;24.80;56.30;;;;;;5126542;27;20911;-48
2022/06/26 04:53:10;;;;;;;1.23;1.13;;;24.80;56.30;;;;;;5070607;27;20542;-48
2022/06/26 04:55:50;;;;;;;1.50;1.10;;;24.80;56.40;;;;;;5096983;27;20539;-45
2022/06/26 04:58:32;;;;;;;1.40;1.30;;;24.90;56.40;;;;;;5108433;27;20550;-50
2022/06/26 05:01:11;;;;;;;1.30;1.20;;;24.90;56.40;;;;;;5127255;27;20561;-49
2022/06/26 05:04:10;;;;;;;1.27;1.17;;;24.80;56.30;;;;;;5069863;27;20595;-48
2022/06/26 05:06:58;;;;;;;1.70;1.10;;;24.80;56.30;;;;;;5086467;27;20535;-47
2022/06/26 05:09:46;;;;;;;1.03;0.93;;;24.80;56.40;;;;;;5089161;28;20520;-65
2022/06/26 05:12:26;;;;;;;1.97;1.00;;;24.80;56.50;;;;;;5106073;27;20577;-47
2022/06/26 05:15:22;;;;;;;1.20;1.10;;;24.80;56.30;;;;;;5111631;27;20543;-50
2022/06/26 05:18:03;;;;;;;1.20;1.10;;;24.80;56.40;;;;;;5074910;28;20671;-48
2022/06/26 05:20:44;;;;;;;1.30;1.10;;;24.80;56.40;;;;;;5085530;28;20973;-48
2022/06/26 05:23:26;;;;;;;1.23;1.13;;;24.80;56.40;;;;;;5056345;28;20528;-48
2022/06/26 05:26:12;;;;;;;1.63;1.10;;;24.70;56.10;;;;;;5085763;27;20605;-48
2022/06/26 05:28:54;;;;;;;1.33;1.17;;;24.80;56.00;;;;;;5084665;27;20546;-47
2022/06/26 05:31:35;;;;;;;1.30;1.20;;;24.70;56.10;;;;;;5083391;27;20582;-50
2022/06/26 05:34:17;;;;;;;1.10;0.90;;;24.70;56.00;;;;;;5116431;27;21026;-48
2022/06/26 05:36:58;;;;;;;1.23;1.13;;;24.70;56.10;;;;;;5125512;27;20533;-50
2022/06/26 05:39:39;;;;;;;1.00;0.80;;;24.70;56.10;;;;;;5087702;27;20544;-47
2022/06/26 05:42:21;;;;;;;1.23;1.13;;;24.70;56.10;;;;;;5086307;28;20519;-47
2022/06/26 05:45:02;;;;;;;1.00;1.00;;;24.70;56.10;;;;;;5110197;27;20596;-50
2022/06/26 05:47:44;;;;;;;1.93;1.73;;;24.70;56.10;;;;;;5104582;27;20533;-48
2022/06/26 05:50:58;;;;;;;1.20;1.10;;;24.70;56.00;;;;;;5090084;27;20670;-47
2022/06/26 05:53:51;;;;;;;1.20;1.10;;;24.70;55.80;;;;;;5079237;27;20568;-47
2022/06/26 05:56:55;;;;;;;1.50;1.40;;;24.70;55.90;;;;;;5128329;27;21054;-46
2022/06/26 05:59:54;;;;;;;1.90;1.20;;;24.70;55.80;;;;;;5088836;27;20578;-47
2022/06/26 06:03:01;;;;;;;1.73;1.50;;;24.70;55.90;;;;;;5053105;27;20572;-46
2022/06/26 06:05:45;;;;;;;1.37;1.27;;;24.70;55.90;;;;;;5104251;27;20950;-48
2022/06/26 06:08:25;;;;;;;1.63;1.30;;;24.70;55.80;;;;;;5075603;28;20587;-47
2022/06/26 06:11:07;;;;;;;1.83;1.33;;;24.70;55.80;;;;;;5113945;27;20576;-48
2022/06/26 06:13:48;;;;;;;1.53;1.20;;;24.70;55.90;;;;;;5063979;27;20538;-48
2022/06/26 06:16:29;;;;;;;1.67;1.37;;;24.70;55.60;;;;;;5089299;28;20508;-67
2022/06/26 06:19:10;;;;;;;2.00;1.27;;;24.60;55.70;;;;;;5055205;27;1257691;-47
2022/06/26 06:21:54;;;;;;;1.70;1.20;;;24.60;55.70;;;;;;5125924;27;21039;-47
2022/06/26 06:24:40;;;;;;;1.30;1.20;;;24.60;55.80;;;;;;5079123;28;20936;-47
2022/06/26 06:27:22;;;;;;;1.60;1.50;;;24.60;55.80;;;;;;5085592;28;20597;-48
2022/06/26 06:30:05;;;;;;;1.30;1.20;;;24.70;55.70;;;;;;5083656;27;20536;-50
2022/06/26 06:32:46;;;;;;;1.60;1.40;;;24.60;55.60;;;;;;5080842;27;20552;-47
2022/06/26 06:36:06;;;;;;;1.20;1.10;;;24.60;55.60;;;;;;5078252;27;20594;-46
2022/06/26 06:38:49;;;;;;;1.47;1.00;;;24.60;55.60;;;;;;5067834;27;20648;-46
2022/06/26 06:41:29;;;;;;;1.50;1.40;;;24.60;55.60;;;;;;5071501;28;21046;-47
2022/06/26 06:44:23;;;;;;;1.10;1.00;;;24.60;55.50;;;;;;5071068;27;20557;-49
2022/06/26 06:47:23;;;;;;;1.03;0.93;;;24.60;55.50;;;;;;5086295;28;20948;-49
2022/06/26 06:50:23;;;;;;;1.30;1.20;;;24.60;55.60;;;;;;5079659;27;20575;-50
2022/06/26 06:53:09;;;;;;;1.87;0.90;;;24.60;55.50;;;;;;5073843;28;20941;-47
2022/06/26 06:55:49;;;;;;;1.50;1.10;;;24.60;55.60;;;;;;5113985;27;1223189;-48
2022/06/26 06:58:30;;;;;;;1.70;1.37;;;24.60;55.60;;;;;;5072843;27;21115;-47
2022/06/26 07:01:10;;;;;;;1.50;1.23;;;24.60;55.50;;;;;;5087842;28;20528;-48
2022/06/26 07:03:51;;;;;;;0.80;0.80;;;24.60;55.50;;;;;;5075324;27;20596;-48
2022/06/26 07:06:31;;;;;;;1.10;0.90;;;24.60;55.40;;;;;;5086544;28;20989;-47
2022/06/26 07:09:12;;;;;;;1.23;1.13;;;24.60;55.60;;;;;;5070082;27;20598;-47
2022/06/26 07:11:54;;;;;;;4.30;1.60;;;24.60;55.60;;;;;;5076312;28;20567;-48
2022/06/26 07:14:37;;;;;;;1.10;1.00;;;24.60;55.60;;;;;;5061226;27;20556;-47
2022/06/26 07:17:18;;;;;;;1.20;0.83;;;24.60;55.30;;;;;;5086442;27;20553;-48
2022/06/26 07:20:05;;;;;;;0.90;0.90;;;24.60;55.20;;;;;;5086730;27;20508;-48
2022/06/26 07:22:46;;;;;;;1.10;1.00;;;24.60;55.40;;;;;;5078774;28;20524;-49
2022/06/26 07:25:42;;;;;;;1.27;1.17;;;24.60;55.40;;;;;;5128444;27;20858;-49
2022/06/26 07:28:23;;;;;;;1.37;1.27;;;24.60;55.30;;;;;;5117707;27;21077;-49
2022/06/26 07:31:04;;;;;;;1.20;1.10;;;24.60;55.40;;;;;;5080585;28;20597;-47
2022/06/26 07:36:47;;;;;;;1.13;1.00;;;24.60;55.40;;;;;;5085572;28;20590;-48
2022/06/26 07:39:28;;;;;;;1.10;1.00;;;24.60;55.30;;;;;;5071231;27;21148;-48
2022/06/26 07:42:11;;;;;;;1.20;1.10;;;24.60;55.50;;;;;;5087930;28;20531;-46
2022/06/26 07:44:56;;;;;;;1.05;0.95;;;24.60;55.50;;;;;;5122672;27;1221318;-50
2022/06/26 07:47:42;;;;;;;1.67;1.57;;;24.60;55.40;;;;;;5125875;27;1322678;-49
2022/06/26 07:50:26;;;;;;;1.13;1.03;;;24.50;55.30;;;;;;5086957;27;20511;-48
2022/06/26 07:53:08;;;;;;;0.93;0.70;;;24.50;55.30;;;;;;5117451;27;20540;-51
2022/06/26 07:55:49;;;;;;;1.40;1.20;;;24.60;55.30;;;;;;5069330;27;20703;-46
2022/06/26 07:58:29;;;;;;;1.60;1.17;;;24.50;55.30;;;;;;5067677;27;20941;-67
2022/06/26 08:01:08;;;;;;;1.50;1.40;;;24.50;55.50;;;;;;5084921;27;20536;-48
2022/06/26 08:03:57;;;;;;;1.03;0.93;;;24.50;55.60;;;;;;5072177;27;20595;-49
2022/06/26 08:06:38;;;;;;;1.20;1.03;;;24.50;55.50;;;;;;5127158;27;20528;-51
2022/06/26 08:09:19;;;;;;;1.97;1.37;;;24.50;55.40;;;;;;5112786;27;20539;-47
2022/06/26 08:12:01;;;;;;;1.07;1.07;;;24.50;55.60;;;;;;5087846;28;20511;-46
2022/06/26 08:14:42;;;;;;;1.30;1.20;;;24.50;55.40;;;;;;5075798;27;20546;-50
2022/06/26 08:17:23;;;;;;;1.17;0.97;;;24.50;55.40;;;;;;5085855;28;20584;-48
2022/06/26 08:20:03;;;;;;;1.53;0.83;;;24.50;55.10;;;;;;5087404;28;20931;-49
2022/06/26 08:22:44;;;;;;;1.90;1.50;;;24.50;55.10;;;;;;5093561;27;20512;-46
2022/06/26 08:25:25;;;;;;;1.30;1.00;;;24.50;55.50;;;;;;5075432;27;20540;-49
2022/06/26 08:28:06;;;;;;;1.40;1.30;;;24.50;55.10;;;;;;5070037;28;20584;-48
2022/06/26 08:30:47;;;;;;;1.23;1.07;;;24.50;54.90;;;;;;5094439;27;20541;-48
2022/06/26 08:33:29;;;;;;;1.27;1.17;;;24.50;55.10;;;;;;5082873;27;20529;-49
2022/06/26 08:36:10;;;;;;;1.67;1.10;;;24.50;55.30;;;;;;5121424;27;20542;-46
2022/06/26 08:38:51;;;;;;;1.20;1.10;;;24.40;55.10;;;;;;5060555;27;20962;-49
2022/06/26 08:41:39;;;;;;;1.30;1.07;;;24.50;55.20;;;;;;5087045;28;20888;-48
2022/06/26 08:44:19;;;;;;;1.43;1.30;;;24.50;55.30;;;;;;5066374;27;20978;-49
2022/06/26 08:47:03;;;;;;;1.13;1.00;;;24.50;55.20;;;;;;5121558;27;20564;-49
2022/06/26 08:49:44;;;;;;;1.30;1.10;;;24.40;54.90;;;;;;5086142;28;20536;-47
2022/06/26 08:52:30;;;;;;;1.27;0.97;;;24.50;55.20;;;;;;5081891;27;20553;-48
2022/06/26 08:55:11;;;;;;;6.20;1.33;;;24.40;54.80;;;;;;5097050;27;20547;-48
2022/06/26 08:57:52;;;;;;;3.10;1.45;;;24.40;54.70;;;;;;5098368;27;20520;-47
2022/06/26 09:00:33;;;;;;;10.03;2.77;;;24.40;54.80;;;;;;5080991;27;20485;-46
2022/06/26 09:03:19;;;;;;;4.63;2.03;;;24.40;54.50;;;;;;5067881;28;20546;-66
2022/06/26 09:06:00;;;;;;;3.40;1.63;;;24.40;54.30;;;;;;5094837;27;20554;-44
2022/06/26 09:08:48;;;;;;;5.53;2.20;;;24.40;54.40;;;;;;5055265;28;21057;-48
2022/06/26 09:11:38;;;;;;;2.40;1.37;;;24.40;54.30;;;;;;5158313;27;20534;-66
2022/06/26 09:14:18;;;;;;;4.73;1.20;;;24.40;54.30;;;;;;5068084;27;20552;-46
2022/06/26 09:16:59;;;;;;;2.23;1.33;;;24.40;54.50;;;;;;5085866;27;20531;-47
2022/06/26 09:19:43;;;;;;;2.30;1.13;;;24.40;54.60;;;;;;5076702;27;20536;-47
2022/06/26 09:22:24;;;;;;;2.50;1.47;;;24.40;54.50;;;;;;5075853;28;20527;-48
2022/06/26 09:25:06;;;;;;;3.33;1.13;;;24.40;54.70;;;;;;5094766;27;20543;-46
2022/06/26 09:27:47;;;;;;;5.50;1.43;;;24.40;54.60;;;;;;5121436;27;21010;-47
2022/06/26 09:30:27;;;;;;;3.17;1.50;;;24.40;54.60;;;;;;5086149;27;21204;-48
2022/06/26 09:33:08;;;;;;;2.90;1.50;;;24.50;54.50;;;;;;5074959;27;20596;-49
2022/06/26 09:35:48;;;;;;;1.47;1.10;;;24.50;54.70;;;;;;5068174;27;20550;-46
2022/06/26 09:38:32;;;;;;;6.20;1.60;;;24.50;54.50;;;;;;5097921;27;20942;-46
2022/06/26 09:41:12;;;;;;;3.67;1.47;;;24.50;55.10;;;;;;5081206;28;20532;-46
2022/06/26 09:43:55;;;;;;;12.17;2.33;;;24.50;54.20;;;;;;5101733;27;20588;-48
2022/06/26 09:46:35;;;;;;;3.40;1.70;;;24.50;53.90;;;;;;5098552;27;20585;-49
2022/06/26 09:49:17;;;;;;;1.93;1.13;;;24.50;54.10;;;;;;5045985;27;20545;-48
2022/06/26 09:51:58;;;;;;;3.20;1.50;;;24.50;54.30;;;;;;5085496;28;20545;-49
2022/06/26 09:54:40;;;;;;;3.87;1.20;;;24.50;54.50;;;;;;5063645;27;20616;-48
2022/06/26 09:57:21;;;;;;;2.47;1.10;;;24.50;54.10;;;;;;5084689;28;20531;-47
2022/06/26 10:00:03;;;;;;;1.40;1.10;;;24.50;54.20;;;;;;5078661;28;20535;-48
2022/06/26 10:08:52;;;;;;;3.13;1.20;;;24.50;54.40;;;;;;5076633;27;20596;-47
2022/06/26 10:11:34;;;;;;;1.77;1.00;;;24.50;54.30;;;;;;5084919;28;20533;-48
2022/06/26 10:14:19;;;;;;;1.40;1.30;;;24.50;54.40;;;;;;5064311;27;20629;-49
2022/06/26 10:17:23;;;;;;;1.97;1.60;;;24.50;53.90;;;;;;5084961;28;20539;-45
2022/06/26 10:20:08;;;;;;;1.23;1.13;;;24.40;54.30;;;;;;5087942;28;20937;-49
2022/06/26 10:22:49;;;;;;;4.23;1.70;;;24.40;53.90;;;;;;5113390;27;21124;-47
2022/06/26 10:25:32;;;;;;;2.17;1.30;;;24.50;54.10;;;;;;5120746;27;20600;-48
2022/06/26 10:28:20;;;;;;;2.10;1.10;;;24.40;54.00;;;;;;5065318;27;20594;-47
2022/06/26 10:31:08;;;;;;;2.47;1.40;;;24.40;52.90;;;;;;5102613;27;20735;-47
2022/06/26 10:33:50;;;;;;;1.93;1.27;;;24.30;53.30;;;;;;5067785;27;20604;-48
2022/06/26 10:36:31;;;;;;;3.33;1.70;;;24.30;53.50;;;;;;5089315;27;21092;-48
2022/06/26 10:39:12;;;;;;;1.83;1.17;;;24.30;53.50;;;;;;5075650;27;20613;-49
2022/06/26 10:44:57;;;;;;;2.00;1.17;;;24.30;53.30;;;;;;5122129;27;20837;-49
2022/06/26 10:47:47;;;;;;;2.00;1.00;;;24.30;53.50;;;;;;5106080;27;20542;-48
2022/06/26 10:50:31;;;;;;;1.93;1.40;;;24.30;53.50;;;;;;5086694;27;20510;-48
2022/06/26 10:53:18;;;;;;;1.40;1.30;;;24.30;53.30;;;;;;5104091;27;20544;-49
2022/06/26 10:56:00;;;;;;;1.53;1.10;;;24.30;53.30;;;;;;5075724;28;20523;-49
2022/06/26 10:58:44;;;;;;;1.40;1.30;;;24.30;53.30;;;;;;5090798;27;20869;-48
2022/06/26 11:01:26;;;;;;;1.13;1.00;;;24.30;53.30;;;;;;5094019;27;20665;-48
2022/06/26 11:04:07;;;;;;;1.80;1.13;;;24.30;53.70;;;;;;5087750;27;20957;-48
2022/06/26 11:06:51;;;;;;;1.90;1.20;;;24.30;53.70;;;;;;5085695;27;20599;-48
2022/06/26 11:09:32;;;;;;;1.63;1.03;;;24.30;53.70;;;;;;5067518;27;20955;-47
2022/06/26 11:12:13;;;;;;;3.23;1.33;;;24.30;54.00;;;;;;5117759;27;20941;-50
2022/06/26 11:14:55;;;;;;;1.50;1.40;;;24.30;54.00;;;;;;5077067;27;20537;-49
2022/06/26 11:17:36;;;;;;;1.87;1.13;;;24.30;54.20;;;;;;5078762;28;21114;-47
2022/06/26 11:23:19;;;;;;;1.90;1.37;;;24.30;54.50;;;;;;5094217;27;21140;-51
2022/06/26 11:26:02;;;;;;;1.60;1.13;;;24.30;54.50;;;;;;5079705;27;20612;-48
2022/06/26 11:28:44;;;;;;;1.67;1.00;;;24.30;54.60;;;;;;5091030;27;20605;-48
2022/06/26 11:31:27;;;;;;;1.47;0.97;;;24.30;54.70;;;;;;5100263;27;20531;-48
2022/06/26 11:34:10;;;;;;;1.10;1.00;;;24.30;54.80;;;;;;5065225;27;20605;-49
2022/06/26 11:36:51;;;;;;;1.70;1.20;;;24.30;54.80;;;;;;5106581;27;20591;-47
2022/06/26 11:39:42;;;;;;;1.37;1.27;;;24.30;54.80;;;;;;5064639;27;20597;-47
2022/06/26 11:42:24;;;;;;;1.40;1.07;;;24.30;54.80;;;;;;5084410;28;21123;-48
2022/06/26 11:45:07;;;;;;;1.03;0.93;;;24.30;54.80;;;;;;5083656;28;20533;-47
2022/06/26 11:47:48;;;;;;;1.47;1.13;;;24.30;54.90;;;;;;5083422;27;20543;-47
2022/06/26 11:50:34;;;;;;;2.40;1.13;;;24.30;54.50;;;;;;5090181;27;20655;-49
2022/06/26 11:53:21;;;;;;;3.17;1.50;;;24.30;54.60;;;;;;5076593;27;20536;-46
2022/06/26 11:56:02;;;;;;;1.17;1.00;;;24.30;54.70;;;;;;5075131;28;20528;-46
2022/06/26 11:58:48;;;;;;;1.47;1.37;;;24.30;54.80;;;;;;5101788;27;20957;-51
2022/06/26 12:01:34;;;;;;;1.30;1.13;;;24.30;54.80;;;;;;5087854;28;21065;-48
2022/06/26 12:04:18;;;;;;;1.20;1.10;;;24.30;54.70;;;;;;5069611;27;20539;-67
2022/06/26 12:06:59;;;;;;;1.83;1.00;;;24.30;54.70;;;;;;5126753;27;20526;-48
2022/06/26 12:09:39;;;;;;;1.70;1.50;;;24.40;55.00;;;;;;5066219;27;20517;-48
2022/06/26 12:12:19;;;;;;;1.90;1.27;;;24.30;54.80;;;;;;5106919;27;20943;-46
2022/06/26 12:15:00;;;;;;;2.47;1.67;;;24.30;55.10;;;;;;5076271;27;20602;-47
2022/06/26 12:17:40;;;;;;;3.63;1.80;;;24.30;56.40;;;;;;5077429;28;20593;-48
2022/06/26 12:20:21;;;;;;;4.20;1.60;;;24.30;55.10;;;;;;5154214;27;20530;-50
2022/06/26 12:23:01;;;;;;;2.07;1.70;;;24.30;55.50;;;;;;5056573;27;20596;-47
2022/06/26 12:25:45;;;;;;;1.97;1.77;;;24.30;55.90;;;;;;5097659;27;21202;-48
2022/06/26 12:28:26;;;;;;;2.77;1.63;;;24.30;56.40;;;;;;5087684;27;20539;-47
2022/06/26 12:31:07;;;;;;;5.43;1.27;;;24.20;56.40;;;;;;5091711;27;20528;-48
2022/06/26 12:33:49;;;;;;;2.88;1.60;;;24.30;57.00;;;;;;5059519;28;20467;-46
2022/06/26 12:36:30;;;;;;;2.77;1.40;;;24.30;58.00;;;;;;5127480;27;20531;-49
2022/06/26 12:39:11;;;;;;;5.63;1.70;;;24.20;58.30;;;;;;5044954;27;20565;-67
2022/06/26 12:42:12;;;;;;;2.30;1.70;;;24.20;58.30;;;;;;5128685;27;20524;-49
2022/06/26 12:44:52;;;;;;;2.00;1.43;;;24.20;58.30;;;;;;5070430;27;20588;-49
2022/06/26 12:47:33;;;;;;;2.30;1.50;;;24.20;58.30;;;;;;5125722;27;20528;-46
2022/06/26 12:50:14;;;;;;;3.67;1.77;;;24.20;58.30;;;;;;5129357;27;1280646;-46
2022/06/26 12:52:54;;;;;;;1.80;1.70;;;24.20;58.30;;;;;;5112290;27;21059;-49
2022/06/26 12:55:36;;;;;;;3.37;2.17;;;24.20;58.10;;;;;;5107997;27;20562;-47
2022/06/26 12:58:22;;;;;;;1.83;1.33;;;24.20;58.10;;;;;;5068694;28;20949;-49
2022/06/26 13:01:03;;;;;;;3.10;2.00;;;24.20;58.30;;;;;;5087371;28;20589;-48
2022/06/26 13:03:43;;;;;;;3.10;1.53;;;24.20;58.80;;;;;;5096563;27;20534;-48
2022/06/26 13:06:24;;;;;;;2.30;1.50;;;24.20;59.00;;;;;;5049136;28;20535;-47
2022/06/26 13:09:06;;;;;;;2.40;1.50;;;24.20;58.80;;;;;;5071855;27;20544;-47
2022/06/26 13:11:46;;;;;;;1.63;1.53;;;24.20;58.70;;;;;;5107821;27;20783;-48
2022/06/26 13:14:26;;;;;;;1.83;1.40;;;24.20;59.00;;;;;;5065372;27;20552;-46
2022/06/26 13:17:07;;;;;;;3.30;1.77;;;24.20;59.20;;;;;;5088356;27;20592;-48
2022/06/26 13:19:48;;;;;;;2.07;1.63;;;24.10;59.20;;;;;;5087412;27;20522;-49
2022/06/26 13:22:28;;;;;;;1.63;1.43;;;24.10;59.10;;;;;;5116376;27;1286490;-48
2022/06/26 13:25:10;;;;;;;1.60;1.37;;;24.10;59.40;;;;;;5077787;27;20593;-48
2022/06/26 13:27:51;;;;;;;2.30;1.80;;;24.10;59.40;;;;;;5078689;27;20570;-45
2022/06/26 13:30:33;;;;;;;2.67;1.67;;;24.10;59.00;;;;;;5124502;27;21240;-48
2022/06/26 13:33:14;;;;;;;1.67;1.20;;;24.10;58.90;;;;;;5073256;27;20546;-47
2022/06/26 13:35:54;;;;;;;1.97;1.73;;;24.10;58.70;;;;;;5068593;28;20567;-47
2022/06/26 13:38:35;;;;;;;2.27;1.87;;;24.10;58.60;;;;;;5096515;27;20593;-49
2022/06/26 13:41:16;;;;;;;3.37;1.60;;;24.10;58.70;;;;;;5088585;27;20576;-46
2022/06/26 13:43:56;;;;;;;1.60;1.40;;;24.10;58.70;;;;;;5072360;27;20601;-48
2022/06/26 13:46:38;;;;;;;2.40;1.80;;;24.10;58.30;;;;;;5087900;28;20571;-47
2022/06/26 13:49:19;;;;;;;5.27;1.80;;;24.10;58.30;;;;;;5110879;27;20540;-48
2022/06/26 13:51:59;;;;;;;2.03;1.70;;;24.10;58.50;;;;;;5127653;27;20879;-48
2022/06/26 13:54:44;;;;;;;1.50;1.23;;;24.10;58.40;;;;;;5086766;27;20578;-49
2022/06/26 13:57:25;;;;;;;2.90;1.20;;;24.00;58.40;;;;;;5086364;28;20591;-48
2022/06/26 14:00:08;;;;;;;3.57;1.70;;;24.00;58.40;;;;;;5084820;27;20534;-47
2022/06/26 14:02:54;;;;;;;3.30;1.63;;;24.00;58.30;;;;;;5077850;28;20611;-48
2022/06/26 14:05:34;;;;;;;3.03;1.50;;;24.00;58.20;;;;;;5072109;28;20954;-47
2022/06/26 14:08:14;;;;;;;2.10;1.20;;;24.00;58.20;;;;;;5072238;28;20540;-49
2022/06/26 14:10:53;;;;;;;2.60;1.30;;;24.00;58.10;;;;;;5129328;27;20572;-48
2022/06/26 14:13:33;;;;;;;1.90;1.30;;;23.90;57.90;;;;;;5079902;27;20583;-51
2022/06/26 14:16:13;;;;;;;2.63;1.50;;;24.00;58.10;;;;;;5127650;27;20753;-48
2022/06/26 14:18:53;;;;;;;3.37;1.30;;;24.00;58.30;;;;;;5064349;27;20596;-48
2022/06/26 14:21:33;;;;;;;1.50;1.40;;;24.00;58.10;;;;;;5086796;27;20533;-48
2022/06/26 14:27:11;;;;;;;2.30;1.67;;;24.00;57.90;;;;;;5108234;27;20523;-49
2022/06/26 14:29:52;;;;;;;1.97;1.63;;;23.90;57.50;;;;;;5123746;27;21067;-48
2022/06/26 14:32:33;;;;;;;2.60;1.60;;;23.90;57.60;;;;;;5066444;28;21011;-49